Mastaga, Azerbaijan
Current Conditions -  °F | °C
As of 9:30 AM on Thursday 23 Oct 2014 (Local Time) from UBBB Reporting Station
Clear Clear  
Wind Chill: 55°   Ceiling: Unl
Heat Index: 55°   Visibility: 4mi
Dew Point: 54°   Wind: 5mph
Humidity: 94%   Direction: 310°NW
Pressure: 29.97"   Gusts: NA
Location:  40.54°N, 49.99°E
Report Text: UBBB 230430Z 31004KT 7000 NSC 13/12 Q1015 88CLRD70NOSIG
Loading
Personal Weather Stations






























Interactive Weather Map
Tropical Storm Tracking
New forecast layout! Learn more

10-Day Weather Forecast

Advertisements
Track Severe Weather on mobile